Time;durP1;ratioP1;P1;durP2;ratioP2;P2;SDS_P1;SDS_P2;PMS_P1;PMS_P2;Temp;Humidity;BMP_temperature;BMP_pressure;BME280_temperature;BME280_humidity;BME280_pressure;Samples;Min_cycle;Max_cycle;Signal;HPM_P1;HPM_P2
2023/04/17 00:01:39;;;;;;;48.13;24.83;;;9.90;99.90;;;;;;5006626;28;20794;-84
2023/04/17 00:04:09;;;;;;;47.53;25.27;;;9.70;99.90;;;;;;5028698;28;20289;-83
2023/04/17 00:06:42;;;;;;;51.63;26.00;;;9.70;99.90;;;;;;5031981;28;20227;-84
2023/04/17 00:09:09;;;;;;;48.53;25.53;;;9.70;99.90;;;;;;5017968;28;20206;-82
2023/04/17 00:11:36;;;;;;;45.97;24.57;;;9.70;99.90;;;;;;5020676;28;20292;-84
2023/04/17 00:14:04;;;;;;;43.70;25.13;;;9.70;99.90;;;;;;5011684;28;20240;-85
2023/04/17 00:16:31;;;;;;;46.83;25.30;;;9.70;99.90;;;;;;5026080;28;20222;-82
2023/04/17 00:18:58;;;;;;;50.83;26.57;;;9.70;99.90;;;;;;5017399;28;20791;-82
2023/04/17 00:21:28;;;;;;;46.97;25.00;;;9.60;99.90;;;;;;5026318;28;20281;-85
2023/04/17 00:23:55;;;;;;;53.80;26.40;;;9.70;99.90;;;;;;5009092;28;20208;-83
2023/04/17 00:26:23;;;;;;;47.53;25.37;;;9.70;99.90;;;;;;5027962;28;20226;-83
2023/04/17 00:28:50;;;;;;;49.83;26.97;;;9.70;99.90;;;;;;5025356;28;20301;-83
2023/04/17 00:31:17;;;;;;;48.07;24.93;;;9.60;99.90;;;;;;5027424;28;20195;-83
2023/04/17 00:33:45;;;;;;;42.20;23.53;;;9.70;99.90;;;;;;5005034;28;20297;-82
2023/04/17 00:36:14;;;;;;;49.83;24.73;;;9.70;99.90;;;;;;5034024;28;20574;-81
2023/04/17 00:38:41;;;;;;;45.33;25.67;;;9.70;99.90;;;;;;5032930;28;20197;-83
2023/04/17 00:41:08;;;;;;;43.17;23.40;;;9.60;99.90;;;;;;5036831;28;20209;-84
2023/04/17 00:43:35;;;;;;;41.13;23.13;;;9.60;99.90;;;;;;5011529;28;20199;-83
2023/04/17 00:46:03;;;;;;;40.40;23.03;;;9.60;99.90;;;;;;5032395;28;20214;-83
2023/04/17 00:48:32;;;;;;;42.37;24.37;;;9.80;99.90;;;;;;5014636;28;20292;-84
2023/04/17 00:51:01;;;;;;;47.43;25.43;;;9.70;99.90;;;;;;5029208;28;20571;-83
2023/04/17 00:53:31;;;;;;;44.10;24.20;;;9.60;99.90;;;;;;5019688;28;20211;-81
2023/04/17 00:56:02;;;;;;;46.60;25.73;;;9.60;99.90;;;;;;5033012;28;20301;-83
2023/04/17 00:58:29;;;;;;;46.00;25.07;;;9.60;99.90;;;;;;5021806;28;20301;-82
2023/04/17 01:00:56;;;;;;;43.87;25.83;;;9.60;99.90;;;;;;5033525;28;20228;-82
2023/04/17 01:03:24;;;;;;;45.57;24.57;;;9.60;99.90;;;;;;5031298;28;20210;-82
2023/04/17 01:05:51;;;;;;;44.10;24.37;;;9.50;99.90;;;;;;5029884;28;20196;-84
2023/04/17 01:08:18;;;;;;;44.03;24.33;;;9.50;99.90;;;;;;5015377;28;20280;-83
2023/04/17 01:10:45;;;;;;;46.23;26.27;;;9.50;99.90;;;;;;5031067;28;20218;-82
2023/04/17 01:13:12;;;;;;;42.00;24.70;;;9.50;99.90;;;;;;5031671;28;20615;-83
2023/04/17 01:15:38;;;;;;;44.10;25.07;;;9.40;99.90;;;;;;5030339;28;20214;-83
2023/04/17 01:18:05;;;;;;;44.87;24.37;;;9.40;99.90;;;;;;5030701;28;20721;-82
2023/04/17 01:20:33;;;;;;;44.73;25.10;;;9.40;99.90;;;;;;5033585;28;20238;-82
2023/04/17 01:23:00;;;;;;;45.77;25.67;;;9.40;99.90;;;;;;5029121;28;20682;-82
2023/04/17 01:25:27;;;;;;;44.97;25.13;;;9.40;99.90;;;;;;5027578;28;20563;-82
2023/04/17 01:27:55;;;;;;;43.83;24.50;;;9.30;99.90;;;;;;5015006;28;20701;-82
2023/04/17 01:30:22;;;;;;;42.03;24.60;;;9.30;99.90;;;;;;5035316;28;20217;-82
2023/04/17 01:32:48;;;;;;;45.93;25.80;;;9.30;99.90;;;;;;5028558;28;20242;-82
2023/04/17 01:35:15;;;;;;;42.43;23.87;;;9.40;99.90;;;;;;5031491;28;20214;-81
2023/04/17 01:37:42;;;;;;;48.03;24.77;;;9.30;99.90;;;;;;5018668;28;20330;-82
2023/04/17 01:40:09;;;;;;;40.07;23.70;;;9.30;99.90;;;;;;5017211;28;20206;-82
2023/04/17 01:42:37;;;;;;;43.43;25.30;;;9.40;99.90;;;;;;5025388;28;20273;-81
2023/04/17 01:45:05;;;;;;;42.57;24.30;;;9.40;99.90;;;;;;5049551;28;20222;-82
2023/04/17 01:47:31;;;;;;;44.63;25.57;;;9.30;99.90;;;;;;5023433;28;20225;-80
2023/04/17 01:49:58;;;;;;;44.93;25.07;;;9.30;99.90;;;;;;5035590;28;20198;-82
2023/04/17 01:52:25;;;;;;;45.17;24.50;;;9.20;99.90;;;;;;5026767;28;20257;-82
2023/04/17 01:54:52;;;;;;;44.93;24.93;;;9.20;99.90;;;;;;5034265;28;20293;-81
2023/04/17 01:57:19;;;;;;;51.10;24.40;;;9.20;99.90;;;;;;5036309;28;20302;-82
2023/04/17 01:59:45;;;;;;;44.90;24.70;;;9.10;99.90;;;;;;5027327;28;20219;-82
2023/04/17 02:02:12;;;;;;;41.63;24.13;;;9.10;99.90;;;;;;5027461;28;20253;-82
2023/04/17 02:04:39;;;;;;;45.20;24.93;;;9.10;99.90;;;;;;5025366;28;20202;-81
2023/04/17 02:07:06;;;;;;;46.53;25.57;;;9.10;99.90;;;;;;5030434;28;20363;-83
2023/04/17 02:09:32;;;;;;;43.37;23.87;;;9.10;99.90;;;;;;5025578;28;20300;-84
2023/04/17 02:11:59;;;;;;;50.80;27.87;;;9.00;99.90;;;;;;5026927;28;20220;-82
2023/04/17 02:14:26;;;;;;;46.77;25.53;;;9.10;99.90;;;;;;5028006;28;20357;-81
2023/04/17 02:16:53;;;;;;;46.37;25.17;;;9.10;99.90;;;;;;5036685;28;20299;-81
2023/04/17 02:19:20;;;;;;;46.27;24.77;;;9.00;99.90;;;;;;5027048;28;20209;-82
2023/04/17 02:21:47;;;;;;;49.27;25.13;;;9.00;99.90;;;;;;5016772;28;20237;-82
2023/04/17 02:24:13;;;;;;;45.80;24.57;;;9.00;99.90;;;;;;5027457;28;20587;-80
2023/04/17 02:26:40;;;;;;;46.43;25.03;;;9.00;99.90;;;;;;5030447;28;20244;-82
2023/04/17 02:29:07;;;;;;;43.87;24.27;;;9.00;99.90;;;;;;5025349;28;20703;-81
2023/04/17 02:31:34;;;;;;;43.47;24.47;;;9.00;99.90;;;;;;5013700;28;20592;-81
2023/04/17 02:34:01;;;;;;;46.70;25.17;;;9.00;99.90;;;;;;5027519;28;20210;-81
2023/04/17 02:36:28;;;;;;;45.00;25.23;;;9.00;99.90;;;;;;5016811;28;20260;-84
2023/04/17 02:38:55;;;;;;;48.17;25.90;;;9.00;99.90;;;;;;5024311;28;20241;-82
2023/04/17 02:41:22;;;;;;;48.47;26.80;;;9.00;99.90;;;;;;5026754;28;20209;-83
2023/04/17 02:43:49;;;;;;;49.53;25.93;;;9.10;99.90;;;;;;5030684;28;20584;-82
2023/04/17 02:46:15;;;;;;;48.93;24.70;;;9.10;99.90;;;;;;5029516;28;20200;-81
2023/04/17 02:48:42;;;;;;;50.80;27.03;;;9.20;99.90;;;;;;5023884;28;20244;-81
2023/04/17 02:51:09;;;;;;;54.63;27.17;;;9.10;99.90;;;;;;5014285;28;20273;-82
2023/04/17 02:53:36;;;;;;;47.20;25.70;;;9.10;99.90;;;;;;5026679;28;20357;-81
2023/04/17 02:56:03;;;;;;;49.97;26.27;;;9.10;99.90;;;;;;5025862;28;20210;-82
2023/04/17 02:58:29;;;;;;;54.13;27.60;;;9.10;99.90;;;;;;5026500;28;20238;-82
2023/04/17 03:01:01;;;;;;;52.83;27.03;;;9.10;99.90;;;;;;5023826;28;20304;-82
2023/04/17 03:03:33;;;;;;;53.87;26.77;;;9.00;99.90;;;;;;5026332;28;20202;-82
2023/04/17 03:06:00;;;;;;;52.50;28.43;;;9.00;99.90;;;;;;5025728;28;20226;-81
2023/04/17 03:08:28;;;;;;;53.20;28.27;;;9.00;99.90;;;;;;5024269;28;20198;-82
2023/04/17 03:10:58;;;;;;;58.00;28.93;;;9.00;99.90;;;;;;5014136;28;20235;-82
2023/04/17 03:13:25;;;;;;;58.90;29.17;;;9.00;99.90;;;;;;5029559;28;20198;-82
2023/04/17 03:15:52;;;;;;;57.87;28.90;;;9.00;99.90;;;;;;5025091;28;20220;-82
2023/04/17 03:18:19;;;;;;;60.07;29.00;;;9.00;99.90;;;;;;5024079;28;20777;-82
2023/04/17 03:20:45;;;;;;;60.73;28.67;;;9.00;99.90;;;;;;5023315;28;20574;-80
2023/04/17 03:23:12;;;;;;;64.40;31.37;;;9.00;99.90;;;;;;5026693;28;20720;-82
2023/04/17 03:25:39;;;;;;;66.20;31.57;;;9.00;99.90;;;;;;5025734;28;20209;-83
2023/04/17 03:28:06;;;;;;;68.80;30.80;;;9.00;99.90;;;;;;5023412;28;20305;-83
2023/04/17 03:30:33;;;;;;;62.40;29.40;;;9.00;99.90;;;;;;5012129;28;20646;-82
2023/04/17 03:33:00;;;;;;;61.67;30.37;;;9.00;99.90;;;;;;5024282;28;20677;-80
2023/04/17 03:35:26;;;;;;;63.17;30.70;;;9.00;99.90;;;;;;5024672;28;20252;-81
2023/04/17 03:37:53;;;;;;;61.87;30.47;;;9.00;99.90;;;;;;5024286;28;20313;-82
2023/04/17 03:40:20;;;;;;;67.53;32.30;;;9.00;99.90;;;;;;5027274;28;20284;-82
2023/04/17 03:42:47;;;;;;;67.37;30.43;;;9.00;99.90;;;;;;5034283;28;20724;-83
2023/04/17 03:45:15;;;;;;;60.83;29.83;;;9.00;99.90;;;;;;5034219;28;20773;-82
2023/04/17 03:47:42;;;;;;;63.30;31.63;;;9.00;99.90;;;;;;5007349;28;20213;-82
2023/04/17 03:50:09;;;;;;;65.67;29.23;;;9.00;99.90;;;;;;5010145;28;20306;-82
2023/04/17 03:52:36;;;;;;;59.77;29.67;;;9.10;99.90;;;;;;5012348;28;20241;-81
2023/04/17 03:55:03;;;;;;;61.63;30.27;;;9.10;99.90;;;;;;5022779;28;20231;-80
2023/04/17 03:57:30;;;;;;;63.27;30.63;;;9.10;99.90;;;;;;5026737;28;20313;-81
2023/04/17 03:59:57;;;;;;;58.80;29.03;;;9.10;99.90;;;;;;5027565;28;20230;-83
2023/04/17 04:02:23;;;;;;;60.20;30.30;;;9.10;99.90;;;;;;5027549;28;20705;-82
2023/04/17 04:04:51;;;;;;;63.77;29.50;;;9.10;99.90;;;;;;5023829;28;20257;-82
2023/04/17 04:07:19;;;;;;;58.57;29.57;;;9.00;99.90;;;;;;5033064;28;20741;-82
2023/04/17 04:09:46;;;;;;;56.80;29.33;;;9.00;99.90;;;;;;5031191;28;20206;-82
2023/04/17 04:12:12;;;;;;;59.33;31.13;;;9.00;99.90;;;;;;5026812;28;20290;-81
2023/04/17 04:14:39;;;;;;;56.80;29.13;;;9.00;99.90;;;;;;5026066;28;20758;-82
2023/04/17 04:17:07;;;;;;;64.33;30.33;;;9.10;99.90;;;;;;5005125;28;20202;-81
2023/04/17 04:19:34;;;;;;;61.17;29.33;;;9.00;99.90;;;;;;5025714;28;20225;-80
2023/04/17 04:22:01;;;;;;;62.17;30.70;;;9.10;99.90;;;;;;5026158;28;20657;-82
2023/04/17 04:24:32;;;;;;;61.40;30.37;;;9.10;99.90;;;;;;5026217;28;20210;-82
2023/04/17 04:27:04;;;;;;;54.50;30.23;;;9.00;99.90;;;;;;5023326;28;20201;-83
2023/04/17 04:29:31;;;;;;;64.30;31.33;;;9.20;99.90;;;;;;5007734;28;20217;-81
2023/04/17 04:31:58;;;;;;;57.63;30.00;;;9.00;99.90;;;;;;5031076;28;20256;-82
2023/04/17 04:34:28;;;;;;;60.03;30.13;;;9.10;99.90;;;;;;5023638;28;20752;-81
2023/04/17 04:36:56;;;;;;;62.47;30.93;;;9.10;99.90;;;;;;5012111;28;20215;-82
2023/04/17 04:39:23;;;;;;;62.37;30.47;;;9.00;99.90;;;;;;5010121;28;20254;-83
2023/04/17 04:41:50;;;;;;;67.47;33.50;;;9.00;99.90;;;;;;5012985;28;20225;-81
2023/04/17 04:44:18;;;;;;;60.10;30.40;;;9.10;99.90;;;;;;5023971;28;20596;-81
2023/04/17 04:46:45;;;;;;;69.40;32.93;;;9.00;99.90;;;;;;5025016;28;20233;-81
2023/04/17 04:49:12;;;;;;;71.57;31.90;;;9.00;99.90;;;;;;5023344;28;20218;-82
2023/04/17 04:51:39;;;;;;;67.23;32.33;;;9.00;99.90;;;;;;5011994;28;20207;-81
2023/04/17 04:54:06;;;;;;;68.20;31.67;;;9.00;99.90;;;;;;5010008;28;20228;-82
2023/04/17 04:56:33;;;;;;;76.00;33.40;;;9.00;99.90;;;;;;5026520;28;20292;-81
2023/04/17 04:58:59;;;;;;;72.03;32.47;;;9.00;99.90;;;;;;5025907;28;20694;-82
2023/04/17 05:01:28;;;;;;;71.83;33.53;;;9.00;99.90;;;;;;5026555;28;20222;-83
2023/04/17 05:03:55;;;;;;;73.10;33.90;;;9.00;99.90;;;;;;5030400;28;20210;-81
2023/04/17 05:06:22;;;;;;;71.20;32.97;;;9.00;99.90;;;;;;5012648;28;20206;-82
2023/04/17 05:08:50;;;;;;;72.93;33.50;;;9.00;99.90;;;;;;5027238;28;20202;-82
2023/04/17 05:11:17;;;;;;;67.80;33.30;;;9.10;99.90;;;;;;5033884;28;20321;-84
2023/04/17 05:13:44;;;;;;;69.73;33.83;;;9.10;99.90;;;;;;5026978;28;20206;-83
2023/04/17 05:16:11;;;;;;;74.87;34.67;;;9.10;99.90;;;;;;5023789;28;20309;-83
2023/04/17 05:18:37;;;;;;;75.03;34.23;;;9.10;99.90;;;;;;5026993;28;20223;-83
2023/04/17 05:21:04;;;;;;;73.23;34.33;;;9.10;99.90;;;;;;5031573;28;20330;-82
2023/04/17 05:23:31;;;;;;;67.70;32.13;;;9.20;99.90;;;;;;5012902;28;20214;-84
2023/04/17 05:25:58;;;;;;;79.57;35.83;;;9.10;99.90;;;;;;5021842;28;20233;-83
2023/04/17 05:28:26;;;;;;;74.53;33.70;;;9.10;99.90;;;;;;5032745;28;20199;-83
2023/04/17 05:30:52;;;;;;;74.00;34.30;;;9.20;99.90;;;;;;5020187;28;20308;-84
2023/04/17 05:33:19;;;;;;;78.00;34.63;;;9.10;99.90;;;;;;5034012;28;20213;-82
2023/04/17 05:35:47;;;;;;;81.10;34.30;;;9.10;99.90;;;;;;5023048;28;20295;-84
2023/04/17 05:38:14;;;;;;;77.53;34.50;;;9.10;99.90;;;;;;5032832;28;20212;-83
2023/04/17 05:40:41;;;;;;;78.10;38.03;;;9.10;99.90;;;;;;5023150;28;20210;-82
2023/04/17 05:43:09;;;;;;;81.20;35.53;;;9.10;99.90;;;;;;5002797;28;20234;-84
2023/04/17 05:45:36;;;;;;;78.90;37.77;;;9.10;99.90;;;;;;5028953;28;20451;-83
2023/04/17 05:48:03;;;;;;;85.17;37.17;;;9.10;99.90;;;;;;5015476;28;20210;-84
2023/04/17 05:50:30;;;;;;;81.07;37.80;;;9.20;99.90;;;;;;5029172;28;20208;-83
2023/04/17 05:52:57;;;;;;;79.77;37.30;;;9.20;99.90;;;;;;5024411;28;20276;-85
2023/04/17 05:55:23;;;;;;;76.60;34.70;;;9.20;99.90;;;;;;5028775;28;20233;-85
2023/04/17 05:57:50;;;;;;;82.67;37.47;;;9.20;99.90;;;;;;5026785;28;20221;-86
2023/04/17 06:00:17;;;;;;;71.13;35.67;;;9.30;99.90;;;;;;5028268;28;20228;-84
2023/04/17 06:02:44;;;;;;;75.57;34.57;;;9.30;99.90;;;;;;5024856;28;20691;-84
2023/04/17 06:05:11;;;;;;;70.57;34.17;;;9.30;99.90;;;;;;5024624;28;20219;-83
2023/04/17 06:07:39;;;;;;;65.83;33.07;;;9.30;99.90;;;;;;5024539;28;20207;-83
2023/04/17 06:10:07;;;;;;;75.63;34.37;;;9.40;99.90;;;;;;5013635;28;20215;-83
2023/04/17 06:12:35;;;;;;;70.77;33.40;;;9.40;99.90;;;;;;5026223;28;20211;-83
2023/04/17 06:15:05;;;;;;;72.33;34.80;;;9.40;99.90;;;;;;5025644;28;20271;-84
2023/04/17 06:17:38;;;;;;;70.57;34.20;;;9.40;99.90;;;;;;5024951;28;20218;-85
2023/04/17 06:20:09;;;;;;;72.57;34.43;;;9.50;99.90;;;;;;5015519;28;20250;-83
2023/04/17 06:22:36;;;;;;;71.37;33.73;;;9.50;99.90;;;;;;5017388;28;20195;-83
2023/04/17 06:25:04;;;;;;;67.70;33.70;;;9.50;99.90;;;;;;5027564;28;20261;-84
2023/04/17 06:27:31;;;;;;;71.50;34.17;;;9.50;99.90;;;;;;5028214;28;20272;-85
2023/04/17 06:30:02;;;;;;;65.13;33.27;;;9.60;99.90;;;;;;5028186;28;20639;-84
2023/04/17 06:32:28;;;;;;;70.17;35.20;;;9.60;99.90;;;;;;5012559;28;20209;-84
2023/04/17 06:34:57;;;;;;;70.67;34.00;;;9.60;99.90;;;;;;5026896;28;20302;-84
2023/04/17 06:37:25;;;;;;;71.57;34.53;;;9.60;99.90;;;;;;5014015;28;20264;-86
2023/04/17 06:39:53;;;;;;;76.07;34.60;;;9.60;99.90;;;;;;5027006;28;20239;-83
2023/04/17 06:42:20;;;;;;;73.07;35.13;;;9.60;99.90;;;;;;5013247;28;20626;-82
2023/04/17 06:44:47;;;;;;;64.97;34.00;;;9.60;99.90;;;;;;5024440;28;20227;-85
2023/04/17 06:47:14;;;;;;;71.47;35.07;;;9.60;99.90;;;;;;5029564;28;20286;-85
2023/04/17 06:49:41;;;;;;;68.77;34.07;;;9.60;99.90;;;;;;5024550;28;20219;-87
2023/04/17 06:52:07;;;;;;;62.83;35.37;;;9.60;99.90;;;;;;5028139;28;20246;-84
2023/04/17 06:54:34;;;;;;;73.60;36.03;;;9.60;99.90;;;;;;5020508;28;20726;-85
2023/04/17 06:57:04;;;;;;;72.00;36.00;;;9.70;99.90;;;;;;5026936;28;20213;-83
2023/04/17 06:59:33;;;;;;;70.90;35.50;;;9.80;99.90;;;;;;5024920;28;20240;-83
2023/04/17 07:02:00;;;;;;;70.67;34.40;;;9.90;99.90;;;;;;5030216;28;20576;-85
2023/04/17 07:04:29;;;;;;;71.93;36.03;;;9.90;99.90;;;;;;5038662;28;20231;-83
2023/04/17 07:06:56;;;;;;;74.30;35.83;;;10.00;99.90;;;;;;5027224;28;20199;-85
2023/04/17 07:09:25;;;;;;;75.03;36.17;;;10.10;99.90;;;;;;5035769;28;20217;-83
2023/04/17 07:11:52;;;;;;;72.33;36.70;;;10.10;99.90;;;;;;5036213;28;20296;-85
2023/04/17 07:14:18;;;;;;;72.73;35.60;;;10.30;99.90;;;;;;5031079;28;20222;-85
2023/04/17 07:16:45;;;;;;;72.57;36.60;;;10.10;99.90;;;;;;5026341;28;20623;-83
2023/04/17 07:19:12;;;;;;;72.07;36.17;;;10.10;99.90;;;;;;5026772;28;20897;-82
2023/04/17 07:21:39;;;;;;;75.00;36.13;;;10.10;99.90;;;;;;5006551;28;20607;-84
2023/04/17 07:24:06;;;;;;;63.73;34.40;;;10.20;99.90;;;;;;5027130;28;20218;-85
2023/04/17 07:26:33;;;;;;;67.13;34.57;;;10.20;99.90;;;;;;5026397;28;20308;-84
2023/04/17 07:29:00;;;;;;;64.80;34.63;;;10.30;99.90;;;;;;5024047;28;20693;-84
2023/04/17 07:31:27;;;;;;;69.20;34.37;;;10.20;99.90;;;;;;5028693;28;20300;-83
2023/04/17 07:33:54;;;;;;;62.77;33.37;;;10.30;99.90;;;;;;5013502;28;20209;-83
2023/04/17 07:36:22;;;;;;;63.50;33.17;;;10.40;99.90;;;;;;5025725;28;20307;-82
2023/04/17 07:38:49;;;;;;;67.53;34.33;;;10.50;99.90;;;;;;5013001;28;20245;-84
2023/04/17 07:41:16;;;;;;;65.77;33.40;;;10.50;99.90;;;;;;5010276;28;20667;-83
2023/04/17 07:43:42;;;;;;;61.53;33.83;;;10.60;99.90;;;;;;5013108;28;20213;-84
2023/04/17 07:46:09;;;;;;;70.73;33.93;;;10.60;99.90;;;;;;5008975;28;20219;-84
2023/04/17 07:48:36;;;;;;;61.83;32.47;;;10.60;99.90;;;;;;5025076;28;20205;-83
2023/04/17 07:51:03;;;;;;;60.20;32.90;;;10.50;99.90;;;;;;5018364;28;20259;-85
2023/04/17 07:53:30;;;;;;;65.67;35.03;;;10.50;99.90;;;;;;5027168;28;20208;-84
2023/04/17 07:56:00;;;;;;;59.20;32.57;;;10.50;99.90;;;;;;5027671;28;20213;-84
2023/04/17 07:58:27;;;;;;;65.07;32.50;;;10.50;99.90;;;;;;5013783;28;20198;-84
2023/04/17 08:00:53;;;;;;;60.67;32.93;;;10.60;99.90;;;;;;5024796;28;20225;-84
2023/04/17 08:03:20;;;;;;;62.33;34.47;;;10.60;99.90;;;;;;5006895;28;20289;-84
2023/04/17 08:05:48;;;;;;;65.30;33.33;;;10.60;99.90;;;;;;5006540;28;20658;-84
2023/04/17 08:08:15;;;;;;;57.70;32.17;;;10.70;99.90;;;;;;5024862;28;20289;-84
2023/04/17 08:10:42;;;;;;;59.93;32.80;;;10.80;99.90;;;;;;5026338;28;20241;-83
2023/04/17 08:13:08;;;;;;;60.00;33.43;;;10.90;99.90;;;;;;5008954;28;20566;-87
2023/04/17 08:15:39;;;;;;;60.33;33.37;;;11.00;99.90;;;;;;5024753;28;20384;-83
2023/04/17 08:18:08;;;;;;;54.20;31.93;;;11.10;99.90;;;;;;5022353;28;20562;-86
2023/04/17 08:20:35;;;;;;;55.27;31.07;;;11.20;99.90;;;;;;5023304;28;20237;-85
2023/04/17 08:23:03;;;;;;;53.93;32.07;;;11.40;99.90;;;;;;5025020;28;20288;-84
2023/04/17 08:25:31;;;;;;;49.13;30.50;;;11.50;99.90;;;;;;5024892;28;20297;-85
2023/04/17 08:27:58;;;;;;;51.20;30.17;;;11.70;99.90;;;;;;5026800;28;20256;-84
2023/04/17 08:30:26;;;;;;;55.80;31.43;;;11.80;99.90;;;;;;5026182;28;20346;-86
2023/04/17 08:32:54;;;;;;;49.10;29.67;;;12.00;99.90;;;;;;5012296;28;20202;-85
2023/04/17 08:35:21;;;;;;;50.70;30.53;;;12.20;99.90;;;;;;5012543;28;20309;-85
2023/04/17 08:37:48;;;;;;;48.13;29.67;;;12.30;99.90;;;;;;5001441;28;20292;-84
2023/04/17 08:40:17;;;;;;;47.50;29.43;;;12.50;99.90;;;;;;5007725;28;20268;-84
2023/04/17 08:42:46;;;;;;;49.07;30.03;;;12.70;99.90;;;;;;5009963;28;20263;-85
2023/04/17 08:45:13;;;;;;;46.03;29.00;;;12.80;99.90;;;;;;5006159;28;20615;-84
2023/04/17 08:47:42;;;;;;;45.37;26.60;;;13.20;99.90;;;;;;5029035;28;20259;-86
2023/04/17 08:50:11;;;;;;;44.90;28.37;;;13.40;99.90;;;;;;5025006;28;20296;-84
2023/04/17 08:52:46;;;;;;;43.73;27.00;;;13.60;99.90;;;;;;5006968;28;20751;-84
2023/04/17 08:55:19;;;;;;;42.57;26.37;;;13.80;99.90;;;;;;5023078;28;20296;-84
2023/04/17 08:58:02;;;;;;;42.87;27.33;;;13.90;99.90;;;;;;5017101;28;20202;-85
2023/04/17 09:00:35;;;;;;;43.10;26.53;;;13.90;99.90;;;;;;5025607;28;20361;-83
2023/04/17 09:03:07;;;;;;;46.33;27.10;;;13.90;99.90;;;;;;5027457;28;20271;-84
2023/04/17 09:05:36;;;;;;;40.00;26.03;;;14.00;99.90;;;;;;5011537;28;20221;-83
2023/04/17 09:08:07;;;;;;;39.60;25.13;;;14.00;99.90;;;;;;5008273;28;20214;-85
2023/04/17 09:10:48;;;;;;;41.07;26.07;;;14.00;99.90;;;;;;5023588;28;20225;-83
2023/04/17 09:13:17;;;;;;;40.93;25.67;;;14.20;99.90;;;;;;5015888;28;20217;-84
2023/04/17 09:15:46;;;;;;;39.60;25.77;;;14.60;99.90;;;;;;5007886;28;20257;-83
2023/04/17 09:18:26;;;;;;;40.78;25.90;;;15.00;99.90;;;;;;5016071;28;20206;-84
2023/04/17 09:20:53;;;;;;;39.78;26.30;;;15.40;99.90;;;;;;5025332;28;20323;-81
2023/04/17 09:23:22;;;;;;;38.08;24.30;;;15.70;99.90;;;;;;5013434;28;20252;-82
2023/04/17 09:26:06;;;;;;;37.65;24.48;;;15.80;99.90;;;;;;5025277;28;20238;-85
2023/04/17 09:28:38;;;;;;;39.03;23.70;;;15.90;99.90;;;;;;5021200;28;20296;-84
2023/04/17 09:31:27;;;;;;;35.60;23.95;;;15.90;99.90;;;;;;5029827;28;20245;-84
2023/04/17 09:34:01;;;;;;;37.83;24.40;;;15.80;99.90;;;;;;5024503;28;20676;-83
2023/04/17 09:36:29;;;;;;;36.80;24.60;;;15.60;99.90;;;;;;5017193;28;20572;-84
2023/04/17 09:39:03;;;;;;;36.63;23.52;;;15.50;99.90;;;;;;5029883;28;20716;-85
2023/04/17 09:41:32;;;;;;;37.78;24.77;;;15.40;99.90;;;;;;5029001;28;20206;-83
2023/04/17 09:44:00;;;;;;;39.85;23.83;;;15.30;99.90;;;;;;5026120;28;20300;-83
2023/04/17 09:46:34;;;;;;;41.80;25.88;;;15.20;99.90;;;;;;5026983;28;20210;-85
2023/04/17 09:49:08;;;;;;;37.17;23.45;;;15.40;99.90;;;;;;5028480;28;20216;-85
2023/04/17 09:51:36;;;;;;;39.22;25.40;;;15.50;99.90;;;;;;5009598;28;20289;-84
2023/04/17 09:54:05;;;;;;;40.72;25.60;;;15.50;99.90;;;;;;5016653;28;20202;-84
2023/04/17 09:56:34;;;;;;;41.75;24.92;;;15.50;99.90;;;;;;5021539;28;20191;-84
2023/04/17 09:59:05;;;;;;;40.92;25.92;;;15.40;99.90;;;;;;5027956;28;20665;-84
2023/04/17 10:01:34;;;;;;;40.42;26.00;;;15.50;99.90;;;;;;5008968;28;20238;-85
2023/04/17 10:04:02;;;;;;;40.85;25.52;;;15.50;99.90;;;;;;5015099;28;20205;-84
2023/04/17 10:06:31;;;;;;;38.05;24.40;;;15.60;99.90;;;;;;5020108;28;20221;-84
2023/04/17 10:08:58;;;;;;;39.47;25.67;;;15.80;99.90;;;;;;5008848;28;20309;-86
2023/04/17 10:11:29;;;;;;;38.63;25.13;;;15.90;99.90;;;;;;5014629;28;20240;-84
2023/04/17 10:14:15;;;;;;;36.95;23.48;;;15.90;99.90;;;;;;5029230;28;20757;-84
2023/04/17 10:16:42;;;;;;;36.58;23.63;;;16.00;99.90;;;;;;5025989;28;20221;-84
2023/04/17 10:19:33;;;;;;;40.05;25.40;;;16.00;99.90;;;;;;5025078;28;20218;-84
2023/04/17 10:22:16;;;;;;;34.63;21.65;;;16.10;99.90;;;;;;5023248;28;20644;-84
2023/04/17 10:24:44;;;;;;;37.08;23.20;;;16.20;99.90;;;;;;5014847;28;20332;-85
2023/04/17 10:27:26;;;;;;;35.45;23.48;;;16.30;99.90;;;;;;5025033;28;20210;-84
2023/04/17 10:30:01;;;;;;;36.10;24.38;;;16.50;99.90;;;;;;5027639;28;20222;-84
2023/04/17 10:32:29;;;;;;;36.17;23.52;;;16.60;99.90;;;;;;5005123;28;20255;-87
2023/04/17 10:35:02;;;;;;;35.22;23.67;;;16.70;99.90;;;;;;5012438;28;20693;-83
2023/04/17 10:37:50;;;;;;;32.80;23.52;;;16.60;99.90;;;;;;5016144;28;20301;-85
2023/04/17 10:40:29;;;;;;;34.95;23.23;;;16.50;99.90;;;;;;5023072;28;20721;-83
2023/04/17 10:43:10;;;;;;;36.25;24.38;;;16.40;99.90;;;;;;5028861;28;20210;-85
2023/04/17 10:45:59;;;;;;;33.05;23.33;;;16.50;99.90;;;;;;5025211;28;20217;-84
2023/04/17 10:48:44;;;;;;;29.92;22.20;;;16.70;99.90;;;;;;5005363;28;20206;-85
2023/04/17 10:51:20;;;;;;;33.78;21.73;;;16.70;99.90;;;;;;5014427;28;20217;-85
2023/04/17 10:53:50;;;;;;;30.23;21.92;;;16.70;99.90;;;;;;5011381;28;20578;-85
2023/04/17 10:56:24;;;;;;;32.03;22.25;;;16.60;99.90;;;;;;5011247;28;20207;-85
2023/04/17 10:58:59;;;;;;;32.03;21.48;;;16.60;99.90;;;;;;5023310;28;20214;-85
2023/04/17 11:01:46;;;;;;;30.67;21.92;;;16.70;99.90;;;;;;5024448;28;20221;-85
2023/04/17 11:04:35;;;;;;;29.65;20.13;;;16.80;99.90;;;;;;5024752;28;20685;-86
2023/04/17 11:07:02;;;;;;;30.73;21.95;;;17.10;99.90;;;;;;5027679;28;20220;-86
2023/04/17 11:09:29;;;;;;;31.38;21.42;;;17.20;99.90;;;;;;5005296;28;20260;-86
2023/04/17 11:12:00;;;;;;;31.25;21.80;;;17.50;99.90;;;;;;5017146;28;20202;-84
2023/04/17 11:14:29;;;;;;;31.92;19.95;;;17.50;99.90;;;;;;5024320;28;20229;-85
2023/04/17 11:16:56;;;;;;;28.42;20.13;;;17.50;99.90;;;;;;5026499;28;20214;-84
2023/04/17 11:19:24;;;;;;;27.65;21.15;;;17.50;99.90;;;;;;5005547;28;20618;-85
2023/04/17 11:21:53;;;;;;;31.17;21.50;;;17.60;99.90;;;;;;5027359;28;20295;-85
2023/04/17 11:24:24;;;;;;;27.80;19.17;;;17.50;99.90;;;;;;5024127;28;20495;-85
2023/04/17 11:26:52;;;;;;;26.15;18.23;;;17.50;99.90;;;;;;5027169;28;20293;-88
2023/04/17 11:29:20;;;;;;;25.98;18.35;;;17.70;99.90;;;;;;5027557;28;20578;-84
2023/04/17 11:31:52;;;;;;;29.15;20.88;;;17.70;99.90;;;;;;5028531;28;20214;-86
2023/04/17 11:34:20;;;;;;;25.25;18.80;;;17.90;99.90;;;;;;5023134;28;20226;-84
2023/04/17 11:36:59;;;;;;;24.40;19.23;;;18.00;99.90;;;;;;5013656;28;20213;-86
2023/04/17 11:39:31;;;;;;;25.38;18.58;;;18.10;99.90;;;;;;5013165;28;20658;-85
2023/04/17 11:41:58;;;;;;;24.00;18.10;;;18.00;99.90;;;;;;5008738;28;20257;-85
2023/04/17 11:44:25;;;;;;;25.25;18.27;;;18.00;99.90;;;;;;5012245;28;20318;-84
2023/04/17 11:46:57;;;;;;;26.13;18.58;;;18.10;99.90;;;;;;5027848;28;20213;-85
2023/04/17 11:49:31;;;;;;;22.05;17.77;;;18.10;99.90;;;;;;5030227;28;20203;-84
2023/04/17 11:52:00;;;;;;;24.83;17.48;;;18.20;99.90;;;;;;5011745;28;20198;-85
2023/04/17 11:54:28;;;;;;;21.83;16.67;;;18.10;99.90;;;;;;5010069;28;20637;-86
2023/04/17 11:57:03;;;;;;;25.35;17.85;;;18.00;99.90;;;;;;5008909;28;20206;-84
2023/04/17 11:59:35;;;;;;;25.20;18.05;;;18.10;99.90;;;;;;5006580;28;20217;-84
2023/04/17 12:02:03;;;;;;;23.77;17.48;;;18.20;99.90;;;;;;5008152;28;20202;-86
2023/04/17 12:04:33;;;;;;;23.63;17.27;;;18.20;99.90;;;;;;5016042;28;20213;-85
2023/04/17 12:07:06;;;;;;;22.90;17.38;;;18.10;99.90;;;;;;5035513;28;20298;-86
2023/04/17 12:09:34;;;;;;;25.48;17.10;;;18.00;99.90;;;;;;5015452;28;20205;-84
2023/04/17 12:12:04;;;;;;;24.50;17.88;;;17.90;99.90;;;;;;5025367;28;20206;-87
2023/04/17 12:14:31;;;;;;;20.83;15.05;;;17.90;99.90;;;;;;5010109;28;20367;-86
2023/04/17 12:16:58;;;;;;;23.27;16.33;;;17.80;99.90;;;;;;5031980;28;20210;-86
2023/04/17 12:19:28;;;;;;;22.77;16.20;;;18.00;99.90;;;;;;5022471;28;20663;-84
2023/04/17 12:21:55;;;;;;;20.63;16.48;;;18.10;99.90;;;;;;5017198;28;20245;-85
2023/04/17 12:24:23;;;;;;;22.48;17.25;;;18.30;99.90;;;;;;5017848;28;20237;-85
2023/04/17 12:26:51;;;;;;;23.70;15.52;;;18.10;99.90;;;;;;5010955;28;20248;-86
2023/04/17 12:29:19;;;;;;;21.50;16.85;;;18.00;99.90;;;;;;5011860;28;20219;-85
2023/04/17 12:32:02;;;;;;;24.17;16.80;;;18.00;99.90;;;;;;5018015;28;20198;-84
2023/04/17 12:34:29;;;;;;;23.88;18.92;;;18.20;99.90;;;;;;5007463;28;20569;-85
2023/04/17 12:36:56;;;;;;;23.33;17.00;;;18.40;99.90;;;;;;5010078;28;20206;-84
2023/04/17 12:39:23;;;;;;;23.48;17.52;;;18.60;99.90;;;;;;5003112;28;20312;-85
2023/04/17 12:41:50;;;;;;;22.83;16.58;;;18.60;99.90;;;;;;5011115;28;20230;-88